sensor_id;sensor_type;location;lat;lon;timestamp;temperature;humidity
12688;DHT22;6408;59.388;17.798;2023-04-01T00:42:14;-4.00;99.90
12688;DHT22;6408;59.388;17.798;2023-04-01T01:03:35;-4.10;99.90
12688;DHT22;6408;59.388;17.798;2023-04-01T01:09:39;-4.20;99.90
12688;DHT22;6408;59.388;17.798;2023-04-01T01:12:52;-4.20;99.90
12688;DHT22;6408;59.388;17.798;2023-04-01T01:32:58;-4.50;99.90
12688;DHT22;6408;59.388;17.798;2023-04-01T01:35:49;-4.50;99.90
12688;DHT22;6408;59.388;17.798;2023-04-01T01:39:04;-4.50;99.90
12688;DHT22;6408;59.388;17.798;2023-04-01T01:42:16;-4.50;99.90
12688;DHT22;6408;59.388;17.798;2023-04-01T01:49:03;-4.60;99.90
12688;DHT22;6408;59.388;17.798;2023-04-01T02:00:00;-4.60;99.90
12688;DHT22;6408;59.388;17.798;2023-04-01T02:02:09;-4.60;99.90
12688;DHT22;6408;59.388;17.798;2023-04-01T02:05:02;-4.60;99.90
12688;DHT22;6408;59.388;17.798;2023-04-01T02:35:52;-4.70;99.90
12688;DHT22;6408;59.388;17.798;2023-04-01T02:41:46;-4.80;99.90
12688;DHT22;6408;59.388;17.798;2023-04-01T02:44:15;-4.80;99.90
12688;DHT22;6408;59.388;17.798;2023-04-01T02:46:43;-4.80;99.90
12688;DHT22;6408;59.388;17.798;2023-04-01T02:49:36;-4.80;99.90
12688;DHT22;6408;59.388;17.798;2023-04-01T04:13:53;-4.50;99.90
12688;DHT22;6408;59.388;17.798;2023-04-01T05:02:37;-0.20;99.90
12688;DHT22;6408;59.388;17.798;2023-04-01T05:05:18;1.50;99.90
12688;DHT22;6408;59.388;17.798;2023-04-01T05:08:01;2.80;99.90
12688;DHT22;6408;59.388;17.798;2023-04-01T05:10:37;3.70;99.90
12688;DHT22;6408;59.388;17.798;2023-04-01T05:13:13;4.50;99.90
12688;DHT22;6408;59.388;17.798;2023-04-01T05:15:47;5.00;99.90
12688;DHT22;6408;59.388;17.798;2023-04-01T05:18:35;5.80;99.90
12688;DHT22;6408;59.388;17.798;2023-04-01T05:21:12;6.50;99.90
12688;DHT22;6408;59.388;17.798;2023-04-01T05:23:42;7.10;99.90
12688;DHT22;6408;59.388;17.798;2023-04-01T05:26:12;7.60;99.90
12688;DHT22;6408;59.388;17.798;2023-04-01T05:28:40;7.80;99.90
12688;DHT22;6408;59.388;17.798;2023-04-01T05:31:13;8.20;99.90
12688;DHT22;6408;59.388;17.798;2023-04-01T05:33:48;8.60;99.90
12688;DHT22;6408;59.388;17.798;2023-04-01T05:36:16;9.30;99.90
12688;DHT22;6408;59.388;17.798;2023-04-01T05:38:44;10.20;99.90
12688;DHT22;6408;59.388;17.798;2023-04-01T05:41:13;10.80;99.90
12688;DHT22;6408;59.388;17.798;2023-04-01T05:43:41;11.10;99.90
12688;DHT22;6408;59.388;17.798;2023-04-01T05:46:08;11.40;99.90
12688;DHT22;6408;59.388;17.798;2023-04-01T05:48:36;12.10;99.90
12688;DHT22;6408;59.388;17.798;2023-04-01T05:51:20;12.50;99.90
12688;DHT22;6408;59.388;17.798;2023-04-01T05:53:51;13.00;99.90
12688;DHT22;6408;59.388;17.798;2023-04-01T05:56:29;13.10;99.90
12688;DHT22;6408;59.388;17.798;2023-04-01T06:02:24;15.10;99.90
12688;DHT22;6408;59.388;17.798;2023-04-01T06:05:12;15.20;99.90
12688;DHT22;6408;59.388;17.798;2023-04-01T06:18:48;18.00;99.20
12688;DHT22;6408;59.388;17.798;2023-04-01T06:21:44;18.30;97.40
12688;DHT22;6408;59.388;17.798;2023-04-01T06:24:26;19.10;96.90
12688;DHT22;6408;59.388;17.798;2023-04-01T06:30:41;19.40;94.80
12688;DHT22;6408;59.388;17.798;2023-04-01T06:33:19;19.40;94.10
12688;DHT22;6408;59.388;17.798;2023-04-01T06:39:20;20.20;92.50
12688;DHT22;6408;59.388;17.798;2023-04-01T06:45:15;21.50;91.10
12688;DHT22;6408;59.388;17.798;2023-04-01T06:54:42;21.50;87.60
12688;DHT22;6408;59.388;17.798;2023-04-01T06:57:23;22.10;86.10
12688;DHT22;6408;59.388;17.798;2023-04-01T07:00:03;22.90;84.90
12688;DHT22;6408;59.388;17.798;2023-04-01T07:05:51;23.10;83.20
12688;DHT22;6408;59.388;17.798;2023-04-01T07:08:39;21.70;82.50
12688;DHT22;6408;59.388;17.798;2023-04-01T07:11:15;22.90;82.60
12688;DHT22;6408;59.388;17.798;2023-04-01T07:13:50;23.10;80.70
12688;DHT22;6408;59.388;17.798;2023-04-01T07:16:25;22.70;80.30
12688;DHT22;6408;59.388;17.798;2023-04-01T07:19:00;23.00;79.10
12688;DHT22;6408;59.388;17.798;2023-04-01T07:22:17;23.40;79.20
12688;DHT22;6408;59.388;17.798;2023-04-01T07:24:52;24.10;78.00
12688;DHT22;6408;59.388;17.798;2023-04-01T07:27:47;24.00;76.40
12688;DHT22;6408;59.388;17.798;2023-04-01T07:33:57;23.70;76.70
12688;DHT22;6408;59.388;17.798;2023-04-01T07:37:00;24.90;73.60
12688;DHT22;6408;59.388;17.798;2023-04-01T07:39:39;25.00;72.90
12688;DHT22;6408;59.388;17.798;2023-04-01T07:45:33;25.60;72.30
12688;DHT22;6408;59.388;17.798;2023-04-01T07:48:20;24.70;71.00
12688;DHT22;6408;59.388;17.798;2023-04-01T07:51:00;24.60;71.60
12688;DHT22;6408;59.388;17.798;2023-04-01T07:53:33;23.40;72.80
12688;DHT22;6408;59.388;17.798;2023-04-01T07:56:25;23.80;72.70
12688;DHT22;6408;59.388;17.798;2023-04-01T08:05:46;25.40;71.10
12688;DHT22;6408;59.388;17.798;2023-04-01T08:08:19;23.90;70.70
12688;DHT22;6408;59.388;17.798;2023-04-01T08:10:57;23.20;72.60
12688;DHT22;6408;59.388;17.798;2023-04-01T08:13:37;22.80;72.10
12688;DHT22;6408;59.388;17.798;2023-04-01T08:16:18;21.90;73.40
12688;DHT22;6408;59.388;17.798;2023-04-01T08:18:54;23.00;72.00
12688;DHT22;6408;59.388;17.798;2023-04-01T08:21:35;22.50;71.90
12688;DHT22;6408;59.388;17.798;2023-04-01T08:24:22;23.30;72.20
12688;DHT22;6408;59.388;17.798;2023-04-01T08:27:11;22.40;71.60
12688;DHT22;6408;59.388;17.798;2023-04-01T08:29:46;23.20;71.40
12688;DHT22;6408;59.388;17.798;2023-04-01T08:32:28;24.10;70.10
12688;DHT22;6408;59.388;17.798;2023-04-01T08:35:09;25.00;70.20
12688;DHT22;6408;59.388;17.798;2023-04-01T08:41:17;22.70;69.50
12688;DHT22;6408;59.388;17.798;2023-04-01T08:47:24;23.90;68.40
12688;DHT22;6408;59.388;17.798;2023-04-01T08:50:31;24.60;69.40
12688;DHT22;6408;59.388;17.798;2023-04-01T08:53:39;25.50;67.70
12688;DHT22;6408;59.388;17.798;2023-04-01T08:56:39;26.20;66.80
12688;DHT22;6408;59.388;17.798;2023-04-01T08:59:31;26.00;66.00
12688;DHT22;6408;59.388;17.798;2023-04-01T09:02:29;26.80;66.30
12688;DHT22;6408;59.388;17.798;2023-04-01T09:05:40;25.00;63.80
12688;DHT22;6408;59.388;17.798;2023-04-01T09:08:31;24.60;65.40
12688;DHT22;6408;59.388;17.798;2023-04-01T09:11:18;24.40;66.40
12688;DHT22;6408;59.388;17.798;2023-04-01T09:14:47;22.10;65.80
12688;DHT22;6408;59.388;17.798;2023-04-01T09:21:19;20.30;67.60
12688;DHT22;6408;59.388;17.798;2023-04-01T09:27:26;18.50;73.30
12688;DHT22;6408;59.388;17.798;2023-04-01T09:30:42;17.20;73.10
12688;DHT22;6408;59.388;17.798;2023-04-01T09:34:00;16.80;76.00
12688;DHT22;6408;59.388;17.798;2023-04-01T09:36:47;16.00;77.60
12688;DHT22;6408;59.388;17.798;2023-04-01T09:40:03;13.30;80.30
12688;DHT22;6408;59.388;17.798;2023-04-01T09:46:04;10.90;86.20
12688;DHT22;6408;59.388;17.798;2023-04-01T09:49:07;9.80;90.20
12688;DHT22;6408;59.388;17.798;2023-04-01T09:52:03;10.00;89.70
12688;DHT22;6408;59.388;17.798;2023-04-01T09:55:02;9.90;90.10
12688;DHT22;6408;59.388;17.798;2023-04-01T09:58:07;9.20;89.80
12688;DHT22;6408;59.388;17.798;2023-04-01T10:01:19;8.60;91.30
12688;DHT22;6408;59.388;17.798;2023-04-01T10:04:31;8.50;91.20
12688;DHT22;6408;59.388;17.798;2023-04-01T10:11:10;7.50;92.20
12688;DHT22;6408;59.388;17.798;2023-04-01T10:27:16;7.60;93.20
12688;DHT22;6408;59.388;17.798;2023-04-01T10:30:20;8.00;93.00
12688;DHT22;6408;59.388;17.798;2023-04-01T10:36:39;7.90;92.90
12688;DHT22;6408;59.388;17.798;2023-04-01T10:39:37;7.90;93.30
12688;DHT22;6408;59.388;17.798;2023-04-01T10:45:45;7.70;93.50
12688;DHT22;6408;59.388;17.798;2023-04-01T10:54:46;7.80;93.00
12688;DHT22;6408;59.388;17.798;2023-04-01T10:57:44;7.70;92.40
12688;DHT22;6408;59.388;17.798;2023-04-01T11:01:08;7.70;92.40
12688;DHT22;6408;59.388;17.798;2023-04-01T11:07:22;7.60;92.30
12688;DHT22;6408;59.388;17.798;2023-04-01T11:10:34;7.90;92.80
12688;DHT22;6408;59.388;17.798;2023-04-01T11:16:42;7.80;91.80
12688;DHT22;6408;59.388;17.798;2023-04-01T11:19:44;7.80;91.70
12688;DHT22;6408;59.388;17.798;2023-04-01T11:22:45;8.00;91.20
12688;DHT22;6408;59.388;17.798;2023-04-01T11:25:24;8.00;91.70
12688;DHT22;6408;59.388;17.798;2023-04-01T11:37:19;8.10;90.40
12688;DHT22;6408;59.388;17.798;2023-04-01T11:40:11;8.10;90.40
12688;DHT22;6408;59.388;17.798;2023-04-01T11:42:56;7.70;88.70
12688;DHT22;6408;59.388;17.798;2023-04-01T11:45:35;7.60;90.50
12688;DHT22;6408;59.388;17.798;2023-04-01T11:48:22;7.50;90.80
12688;DHT22;6408;59.388;17.798;2023-04-01T11:51:07;7.50;90.40
12688;DHT22;6408;59.388;17.798;2023-04-01T11:53:47;7.60;91.20
12688;DHT22;6408;59.388;17.798;2023-04-01T11:56:38;7.70;91.00
12688;DHT22;6408;59.388;17.798;2023-04-01T12:02:12;7.70;90.80
12688;DHT22;6408;59.388;17.798;2023-04-01T12:08:13;7.50;90.30
12688;DHT22;6408;59.388;17.798;2023-04-01T12:10:48;7.50;90.00
12688;DHT22;6408;59.388;17.798;2023-04-01T12:13:30;7.60;90.50
12688;DHT22;6408;59.388;17.798;2023-04-01T12:16:13;7.80;90.40
12688;DHT22;6408;59.388;17.798;2023-04-01T12:18:52;7.60;89.90
12688;DHT22;6408;59.388;17.798;2023-04-01T12:21:27;7.50;90.20
12688;DHT22;6408;59.388;17.798;2023-04-01T12:27:02;7.60;90.80
12688;DHT22;6408;59.388;17.798;2023-04-01T12:29:49;7.60;91.20
12688;DHT22;6408;59.388;17.798;2023-04-01T12:32:45;7.60;90.80
12688;DHT22;6408;59.388;17.798;2023-04-01T12:35:42;7.50;90.60
12688;DHT22;6408;59.388;17.798;2023-04-01T12:38:24;7.10;90.80
12688;DHT22;6408;59.388;17.798;2023-04-01T12:41:07;7.10;91.40
12688;DHT22;6408;59.388;17.798;2023-04-01T12:44:02;7.20;91.70
12688;DHT22;6408;59.388;17.798;2023-04-01T12:49:53;7.20;91.80
12688;DHT22;6408;59.388;17.798;2023-04-01T12:52:30;7.00;92.30
12688;DHT22;6408;59.388;17.798;2023-04-01T12:55:36;7.10;92.00
12688;DHT22;6408;59.388;17.798;2023-04-01T12:59:05;7.10;92.50
12688;DHT22;6408;59.388;17.798;2023-04-01T13:08:09;6.80;92.20
12688;DHT22;6408;59.388;17.798;2023-04-01T13:11:08;6.80;93.10
12688;DHT22;6408;59.388;17.798;2023-04-01T13:16:36;6.60;92.20
12688;DHT22;6408;59.388;17.798;2023-04-01T13:19:25;6.60;92.60
12688;DHT22;6408;59.388;17.798;2023-04-01T13:22:14;6.70;92.60
12688;DHT22;6408;59.388;17.798;2023-04-01T13:24:46;6.80;93.10
12688;DHT22;6408;59.388;17.798;2023-04-01T13:27:21;6.70;93.00
12688;DHT22;6408;59.388;17.798;2023-04-01T13:30:17;6.70;93.50
12688;DHT22;6408;59.388;17.798;2023-04-01T13:32:54;6.70;92.70
12688;DHT22;6408;59.388;17.798;2023-04-01T13:35:38;6.80;92.70
12688;DHT22;6408;59.388;17.798;2023-04-01T13:41:33;6.40;92.10
12688;DHT22;6408;59.388;17.798;2023-04-01T13:47:30;6.30;92.60
12688;DHT22;6408;59.388;17.798;2023-04-01T13:50:49;6.30;92.40
12688;DHT22;6408;59.388;17.798;2023-04-01T13:56:42;6.20;92.50
12688;DHT22;6408;59.388;17.798;2023-04-01T14:08:59;6.10;91.10
12688;DHT22;6408;59.388;17.798;2023-04-01T14:11:46;6.00;92.00
12688;DHT22;6408;59.388;17.798;2023-04-01T14:14:31;6.00;91.30
12688;DHT22;6408;59.388;17.798;2023-04-01T14:20:25;6.00;91.00
12688;DHT22;6408;59.388;17.798;2023-04-01T14:29:32;5.80;91.50
12688;DHT22;6408;59.388;17.798;2023-04-01T14:32:12;5.80;92.60
12688;DHT22;6408;59.388;17.798;2023-04-01T14:34:55;5.80;92.80
12688;DHT22;6408;59.388;17.798;2023-04-01T14:37:57;5.90;92.50
12688;DHT22;6408;59.388;17.798;2023-04-01T14:40:41;6.10;92.30
12688;DHT22;6408;59.388;17.798;2023-04-01T14:43:48;6.10;92.10
12688;DHT22;6408;59.388;17.798;2023-04-01T14:49:53;6.00;91.90
12688;DHT22;6408;59.388;17.798;2023-04-01T14:52:28;5.90;92.30
12688;DHT22;6408;59.388;17.798;2023-04-01T14:55:00;6.00;92.10
12688;DHT22;6408;59.388;17.798;2023-04-01T14:57:39;5.90;91.50
12688;DHT22;6408;59.388;17.798;2023-04-01T15:00:24;5.90;91.70
12688;DHT22;6408;59.388;17.798;2023-04-01T15:02:59;5.80;91.70
12688;DHT22;6408;59.388;17.798;2023-04-01T15:05:43;5.80;92.10
12688;DHT22;6408;59.388;17.798;2023-04-01T15:08:25;5.80;91.60
12688;DHT22;6408;59.388;17.798;2023-04-01T15:11:35;5.80;92.00
12688;DHT22;6408;59.388;17.798;2023-04-01T15:14:24;5.60;91.40
12688;DHT22;6408;59.388;17.798;2023-04-01T15:17:14;5.50;91.30
12688;DHT22;6408;59.388;17.798;2023-04-01T15:19:58;5.40;91.50
12688;DHT22;6408;59.388;17.798;2023-04-01T15:22:51;5.40;91.90
12688;DHT22;6408;59.388;17.798;2023-04-01T15:25:46;5.30;91.80
12688;DHT22;6408;59.388;17.798;2023-04-01T15:31:28;5.30;92.50
12688;DHT22;6408;59.388;17.798;2023-04-01T15:34:22;5.30;92.30
12688;DHT22;6408;59.388;17.798;2023-04-01T15:37:04;5.20;92.60
12688;DHT22;6408;59.388;17.798;2023-04-01T15:39:55;5.20;92.40
12688;DHT22;6408;59.388;17.798;2023-04-01T15:42:38;5.10;92.70
12688;DHT22;6408;59.388;17.798;2023-04-01T15:45:18;5.10;92.00
12688;DHT22;6408;59.388;17.798;2023-04-01T15:48:19;4.90;91.70
12688;DHT22;6408;59.388;17.798;2023-04-01T15:51:24;4.90;91.30
12688;DHT22;6408;59.388;17.798;2023-04-01T15:54:18;4.80;92.30
12688;DHT22;6408;59.388;17.798;2023-04-01T16:00:05;4.60;91.90
12688;DHT22;6408;59.388;17.798;2023-04-01T16:02:46;4.50;91.90
12688;DHT22;6408;59.388;17.798;2023-04-01T16:05:34;4.30;92.50
12688;DHT22;6408;59.388;17.798;2023-04-01T16:11:18;4.20;92.00
12688;DHT22;6408;59.388;17.798;2023-04-01T16:14:02;4.10;92.70
12688;DHT22;6408;59.388;17.798;2023-04-01T16:20:45;3.90;93.60
12688;DHT22;6408;59.388;17.798;2023-04-01T16:23:26;3.90;93.40
12688;DHT22;6408;59.388;17.798;2023-04-01T16:29:04;3.80;93.50
12688;DHT22;6408;59.388;17.798;2023-04-01T16:31:48;3.80;94.10
12688;DHT22;6408;59.388;17.798;2023-04-01T16:34:30;3.80;95.30
12688;DHT22;6408;59.388;17.798;2023-04-01T16:37:10;3.70;95.70
12688;DHT22;6408;59.388;17.798;2023-04-01T16:39:47;3.80;96.50
12688;DHT22;6408;59.388;17.798;2023-04-01T16:42:34;3.60;96.70
12688;DHT22;6408;59.388;17.798;2023-04-01T16:45:18;3.50;97.30
12688;DHT22;6408;59.388;17.798;2023-04-01T16:47:51;3.50;97.40
12688;DHT22;6408;59.388;17.798;2023-04-01T16:50:22;3.40;97.60
12688;DHT22;6408;59.388;17.798;2023-04-01T16:53:16;3.30;97.10
12688;DHT22;6408;59.388;17.798;2023-04-01T16:55:49;3.30;97.00
12688;DHT22;6408;59.388;17.798;2023-04-01T16:58:24;3.10;97.00
12688;DHT22;6408;59.388;17.798;2023-04-01T17:01:03;3.00;97.00
12688;DHT22;6408;59.388;17.798;2023-04-01T17:03:42;2.90;97.40
12688;DHT22;6408;59.388;17.798;2023-04-01T17:06:36;2.90;97.00
12688;DHT22;6408;59.388;17.798;2023-04-01T17:09:20;2.70;97.10
12688;DHT22;6408;59.388;17.798;2023-04-01T17:12:00;2.60;97.00
12688;DHT22;6408;59.388;17.798;2023-04-01T17:14:52;2.50;96.90
12688;DHT22;6408;59.388;17.798;2023-04-01T17:17:42;2.50;96.70
12688;DHT22;6408;59.388;17.798;2023-04-01T17:23:20;2.30;96.10
12688;DHT22;6408;59.388;17.798;2023-04-01T17:26:26;2.20;97.10
12688;DHT22;6408;59.388;17.798;2023-04-01T17:29:04;2.10;97.30
12688;DHT22;6408;59.388;17.798;2023-04-01T17:31:43;2.10;97.50
12688;DHT22;6408;59.388;17.798;2023-04-01T17:34:38;1.90;97.90
12688;DHT22;6408;59.388;17.798;2023-04-01T17:37:28;1.80;98.30
12688;DHT22;6408;59.388;17.798;2023-04-01T17:40:17;1.80;98.60
12688;DHT22;6408;59.388;17.798;2023-04-01T17:43:00;1.80;98.90
12688;DHT22;6408;59.388;17.798;2023-04-01T17:45:45;1.70;99.20
12688;DHT22;6408;59.388;17.798;2023-04-01T17:48:30;1.60;99.70
12688;DHT22;6408;59.388;17.798;2023-04-01T17:51:18;1.40;99.90
12688;DHT22;6408;59.388;17.798;2023-04-01T17:54:00;1.40;99.90
12688;DHT22;6408;59.388;17.798;2023-04-01T17:56:59;1.30;99.90
12688;DHT22;6408;59.388;17.798;2023-04-01T17:59:35;1.30;99.90
12688;DHT22;6408;59.388;17.798;2023-04-01T18:02:20;1.30;99.90
12688;DHT22;6408;59.388;17.798;2023-04-01T18:05:03;1.20;99.90
12688;DHT22;6408;59.388;17.798;2023-04-01T18:08:10;1.20;99.90
12688;DHT22;6408;59.388;17.798;2023-04-01T18:10:48;1.10;99.90
12688;DHT22;6408;59.388;17.798;2023-04-01T18:13:47;1.00;99.90
12688;DHT22;6408;59.388;17.798;2023-04-01T18:16:30;1.10;99.90
12688;DHT22;6408;59.388;17.798;2023-04-01T18:19:10;1.00;99.90
12688;DHT22;6408;59.388;17.798;2023-04-01T18:21:46;0.90;99.90
12688;DHT22;6408;59.388;17.798;2023-04-01T18:24:23;0.80;99.90
12688;DHT22;6408;59.388;17.798;2023-04-01T18:27:04;0.80;99.90
12688;DHT22;6408;59.388;17.798;2023-04-01T18:29:37;0.80;99.90
12688;DHT22;6408;59.388;17.798;2023-04-01T18:32:26;0.70;99.90
12688;DHT22;6408;59.388;17.798;2023-04-01T18:38:15;0.60;99.90
12688;DHT22;6408;59.388;17.798;2023-04-01T18:40:51;0.50;99.90
12688;DHT22;6408;59.388;17.798;2023-04-01T18:43:32;0.50;99.90
12688;DHT22;6408;59.388;17.798;2023-04-01T18:46:09;0.50;99.90
12688;DHT22;6408;59.388;17.798;2023-04-01T18:48:55;0.50;99.90
12688;DHT22;6408;59.388;17.798;2023-04-01T18:51:38;0.50;99.90
12688;DHT22;6408;59.388;17.798;2023-04-01T18:54:16;0.40;99.90
12688;DHT22;6408;59.388;17.798;2023-04-01T18:56:48;0.30;99.90
12688;DHT22;6408;59.388;17.798;2023-04-01T18:59:29;0.20;99.90
12688;DHT22;6408;59.388;17.798;2023-04-01T19:02:04;0.30;99.90
12688;DHT22;6408;59.388;17.798;2023-04-01T19:04:44;0.20;99.90
12688;DHT22;6408;59.388;17.798;2023-04-01T19:07:41;0.10;99.90
12688;DHT22;6408;59.388;17.798;2023-04-01T19:10:36;0.10;99.90
12688;DHT22;6408;59.388;17.798;2023-04-01T19:13:15;0.10;99.90
12688;DHT22;6408;59.388;17.798;2023-04-01T19:15:56;0.10;99.90
12688;DHT22;6408;59.388;17.798;2023-04-01T19:18:33;0.10;99.90
12688;DHT22;6408;59.388;17.798;2023-04-01T19:21:11;0.00;99.90
12688;DHT22;6408;59.388;17.798;2023-04-01T19:24:22;0.00;99.90
12688;DHT22;6408;59.388;17.798;2023-04-01T19:26:57;-0.10;99.90
12688;DHT22;6408;59.388;17.798;2023-04-01T19:30:02;-0.20;99.90
12688;DHT22;6408;59.388;17.798;2023-04-01T19:32:42;-0.10;99.90
12688;DHT22;6408;59.388;17.798;2023-04-01T19:35:27;-0.10;99.90
12688;DHT22;6408;59.388;17.798;2023-04-01T19:38:14;-0.10;99.90
12688;DHT22;6408;59.388;17.798;2023-04-01T19:40:58;-0.20;99.90
12688;DHT22;6408;59.388;17.798;2023-04-01T19:46:29;-0.30;99.90
12688;DHT22;6408;59.388;17.798;2023-04-01T19:49:20;-0.30;99.90
12688;DHT22;6408;59.388;17.798;2023-04-01T19:51:59;-0.30;99.90
12688;DHT22;6408;59.388;17.798;2023-04-01T19:54:46;-0.40;99.90
12688;DHT22;6408;59.388;17.798;2023-04-01T19:57:30;-0.50;99.90
12688;DHT22;6408;59.388;17.798;2023-04-01T20:00:13;-0.50;99.90
12688;DHT22;6408;59.388;17.798;2023-04-01T20:03:10;-0.50;99.90
12688;DHT22;6408;59.388;17.798;2023-04-01T20:05:56;-0.50;99.90
12688;DHT22;6408;59.388;17.798;2023-04-01T20:08:51;-0.50;99.90
12688;DHT22;6408;59.388;17.798;2023-04-01T20:11:34;-0.60;99.90
12688;DHT22;6408;59.388;17.798;2023-04-01T20:14:13;-0.70;99.90
12688;DHT22;6408;59.388;17.798;2023-04-01T20:16:54;-0.70;99.90
12688;DHT22;6408;59.388;17.798;2023-04-01T20:19:33;-0.70;99.90
12688;DHT22;6408;59.388;17.798;2023-04-01T20:22:16;-0.70;99.90
12688;DHT22;6408;59.388;17.798;2023-04-01T20:24:47;-0.80;99.90
12688;DHT22;6408;59.388;17.798;2023-04-01T20:27:51;-0.70;99.90
12688;DHT22;6408;59.388;17.798;2023-04-01T20:40:09;-0.90;99.90
12688;DHT22;6408;59.388;17.798;2023-04-01T20:43:33;-0.80;99.90
12688;DHT22;6408;59.388;17.798;2023-04-01T20:46:14;-0.70;99.90
12688;DHT22;6408;59.388;17.798;2023-04-01T20:52:29;-0.90;99.90
12688;DHT22;6408;59.388;17.798;2023-04-01T20:58:13;-1.00;99.90
12688;DHT22;6408;59.388;17.798;2023-04-01T21:01:01;-1.10;99.90
12688;DHT22;6408;59.388;17.798;2023-04-01T21:04:10;-1.10;99.90
12688;DHT22;6408;59.388;17.798;2023-04-01T21:07:08;-1.00;99.90
12688;DHT22;6408;59.388;17.798;2023-04-01T21:10:03;-1.00;99.90
12688;DHT22;6408;59.388;17.798;2023-04-01T21:19:02;-1.10;99.90
12688;DHT22;6408;59.388;17.798;2023-04-01T21:22:06;-1.10;99.90
12688;DHT22;6408;59.388;17.798;2023-04-01T21:28:35;-1.20;99.90
12688;DHT22;6408;59.388;17.798;2023-04-01T21:31:29;-1.30;99.90
12688;DHT22;6408;59.388;17.798;2023-04-01T21:40:38;-1.30;99.90
12688;DHT22;6408;59.388;17.798;2023-04-01T21:43:29;-1.30;99.90
12688;DHT22;6408;59.388;17.798;2023-04-01T21:52:50;-1.40;99.90
12688;DHT22;6408;59.388;17.798;2023-04-01T21:56:01;-1.50;99.90
12688;DHT22;6408;59.388;17.798;2023-04-01T21:59:18;-1.60;99.90
12688;DHT22;6408;59.388;17.798;2023-04-01T22:05:09;-1.50;99.90
12688;DHT22;6408;59.388;17.798;2023-04-01T22:07:50;-1.60;99.90
12688;DHT22;6408;59.388;17.798;2023-04-01T22:10:37;-1.60;99.90
12688;DHT22;6408;59.388;17.798;2023-04-01T22:13:14;-1.50;99.90
12688;DHT22;6408;59.388;17.798;2023-04-01T22:15:54;-1.60;99.90
12688;DHT22;6408;59.388;17.798;2023-04-01T22:18:38;-1.60;99.90
12688;DHT22;6408;59.388;17.798;2023-04-01T22:21:15;-1.60;99.90
12688;DHT22;6408;59.388;17.798;2023-04-01T22:24:11;-1.60;99.90
12688;DHT22;6408;59.388;17.798;2023-04-01T22:26:58;-1.50;99.90
12688;DHT22;6408;59.388;17.798;2023-04-01T22:29:49;-1.60;99.90
12688;DHT22;6408;59.388;17.798;2023-04-01T22:32:23;-1.60;99.90
12688;DHT22;6408;59.388;17.798;2023-04-01T22:35:09;-1.70;99.90
12688;DHT22;6408;59.388;17.798;2023-04-01T22:37:50;-1.70;99.90
12688;DHT22;6408;59.388;17.798;2023-04-01T22:40:36;-1.70;99.90
12688;DHT22;6408;59.388;17.798;2023-04-01T22:43:12;-1.70;99.90
12688;DHT22;6408;59.388;17.798;2023-04-01T22:46:03;-1.70;99.90
12688;DHT22;6408;59.388;17.798;2023-04-01T22:48:39;-1.70;99.90
12688;DHT22;6408;59.388;17.798;2023-04-01T22:51:18;-1.70;99.90
12688;DHT22;6408;59.388;17.798;2023-04-01T22:54:02;-1.70;99.90
12688;DHT22;6408;59.388;17.798;2023-04-01T22:56:43;-1.70;99.90
12688;DHT22;6408;59.388;17.798;2023-04-01T22:59:27;-1.70;99.90
12688;DHT22;6408;59.388;17.798;2023-04-01T23:02:09;-1.80;99.90
12688;DHT22;6408;59.388;17.798;2023-04-01T23:04:51;-1.80;99.90
12688;DHT22;6408;59.388;17.798;2023-04-01T23:07:38;-1.80;99.90
12688;DHT22;6408;59.388;17.798;2023-04-01T23:10:20;-1.90;99.90
12688;DHT22;6408;59.388;17.798;2023-04-01T23:12:54;-1.90;99.90
12688;DHT22;6408;59.388;17.798;2023-04-01T23:15:26;-1.90;99.90
12688;DHT22;6408;59.388;17.798;2023-04-01T23:18:11;-2.00;99.90
12688;DHT22;6408;59.388;17.798;2023-04-01T23:20:59;-2.00;99.90
12688;DHT22;6408;59.388;17.798;2023-04-01T23:23:53;-2.00;99.90
12688;DHT22;6408;59.388;17.798;2023-04-01T23:26:33;-2.00;99.90
12688;DHT22;6408;59.388;17.798;2023-04-01T23:29:17;-2.00;99.90
12688;DHT22;6408;59.388;17.798;2023-04-01T23:31:48;-2.10;99.90
12688;DHT22;6408;59.388;17.798;2023-04-01T23:34:46;-2.00;99.90
12688;DHT22;6408;59.388;17.798;2023-04-01T23:37:39;-2.00;99.90
12688;DHT22;6408;59.388;17.798;2023-04-01T23:40:21;-2.10;99.90
12688;DHT22;6408;59.388;17.798;2023-04-01T23:45:37;-2.20;99.90
12688;DHT22;6408;59.388;17.798;2023-04-01T23:48:07;-2.10;99.90
12688;DHT22;6408;59.388;17.798;2023-04-01T23:56:22;-2.20;99.90
12688;DHT22;6408;59.388;17.798;2023-04-01T23:59:05;-2.20;99.90
